« ワクワクバニラ 成田国際空港 2016/6/29 wed | トップページ | 定点 富山空港 2016/7/20 wed »

2016/07/19

はっげー 奄美空港 2016/6/29 wed

曇天の成田を飛び立ってひたすら雲上飛行で、ようやく高度を落とし始めました。

20160629_rjka_00ja03va

スピードブレーキを立てて静かに降下しています。

20160629_rjka_01ja03va

島の北端が見えてから、さらに高度を落として、笠利町中心部が見えてきました。

RJKA 290400Z 21013KT 9999 FEW008 BKN/// 31/26 Q1014

20160629_rjka_02ja03va

むむむ、奄美ARSRを視認。レフトターンしています。

20160629_rjka_03ja03va

お、奄美空港直上。これは、VOR RWY21コースか・・

20160629_rjka_04ja03va

遠くに喜界島が見えています。

20160629_rjka_05ja03va

ベースターンをして再度島に向かって南行き

20160629_rjka_06ja8703

ランディング かわいいサーブは奄美の足。 JA8703

20160629_rjka_07ja03va

奄美通信隊のアンテナが見えて・・

20160629_rjka_08ja03va

富山と同じ様のマジンガーなタワー

20160629_rjka_09ja03va

奄美に安く来れるのも・・ 補助金のおかげなんですねぇ。

20160629_rjka_10ame

おっと、忘れていました 笠利VOR/DME(AME)

20160629_rjka_11amami

前回訪問は、1999年12月11日。我ながら笑っちゃたのは、なんと那覇航空祭に行く途中で、アイランドホッピングしていたのでした。

20160629_rjka_12ja851c

陽射しは強いですが、海風が心地よい

20160629_rjka_13ja81rc

最新の-8も来ているのです。

20160629_rjka_14amami

奄美空港の展望デッキは、以前来た時と変っていないようだ。

20160629_rjka_15ja851c

ハンドサインでエンジンスタート

RJKA 290500Z 20013KT 9999 FEW008 BKN/// 31/26 Q1014

20160629_rjka_16ja851c

この日は九州地方大雨で、遅れが出ていました。

20160629_rjka_17ja03va

小生の乗機も成田へ折り返し

20160629_rjka_18ja851c

JAC3726 RJKA-RJFK JA851C DHC8-402Q

20160629_rjka_19ja03va

以前はANKが鹿児島から乗り入れていた頃もありました。

20160629_rjka_20ja81rc

琉球もエンジンスタート

20160629_rjka_21ja81rc

鶴丸が似合ってます。なんか沖縄ぽさがなーい。

20160629_rjka_22ja842c

大事なJACオリジナル塗装が着陸。結構忙しいのです。

20160629_rjka_23ja842c

古々塗装と最新塗装

20160629_rjka_24ja842c

JAC3681 RJFF-RJKA JA842C DHC8-402Q

20160629_rjka_25ja03va

VNL824 RJKA-RJAA JA03VA A320-216

20160629_rjka_26ja81rc

RAC854 RJKA-ROAH JA81RC DHC8-402EC

20160629_rjka_27ja44vp

JA44VP R44

20160629_rjka_28ja338j

JALの羽田便が到着です。

20160629_rjka_29ja338j

JAL659 RJTT-RJKA JA338J B737-846

20160629_rjka_30ja338j

前回の頃は、JASのMD81でしたね。

20160629_rjka_31amami

この辺で、空港を後にしてレンタカーで島内探検

20160629_rjka_32nagagumo

まずは、先の大戦の追悼に。長雲峠旧陸軍通信隊跡。以前は解説看板が掲示されていたのですが、杭だけになっていました。

20160629_rjka_33alc

昨年度末でVORが廃止されTACだけになった、奄美TACAN(ALT)

20160629_rjka_34manen

時間がないので、とにかく南に車を走らせて、今日の宿へ向かいます。

20160629_rjka_35katesu

こんな浜辺できゅらむんと星空を眺めたいですね。

宿でゆんたくして、夜は更けるのでした。

|

« ワクワクバニラ 成田国際空港 2016/6/29 wed | トップページ | 定点 富山空港 2016/7/20 wed »

NAVAIDS」カテゴリの記事

奄美空港」カテゴリの記事

コメント

コメントを書く



(ウェブ上には掲載しません)


コメントは記事投稿者が公開するまで表示されません。



トラックバック


この記事へのトラックバック一覧です: はっげー 奄美空港 2016/6/29 wed:

« ワクワクバニラ 成田国際空港 2016/6/29 wed | トップページ | 定点 富山空港 2016/7/20 wed »